NCAR-RAP Real-Time Weather Data

Output produced by METARs form (08 May 2021  02:01 UTC)
found at http://weather.rap.ucar.edu/surface/
 
KCUB 080053Z AUTO 00000KT 10SM CLR 18/00 A2999 RMK AO2 SLP154 T01780000
KCUB 072353Z AUTO VRB05KT 10SM CLR 21/01 A2997 RMK AO2 SLP146 T02060006 10233 20206 53011
KCUB 072253Z AUTO VRB06KT 10SM CLR 22/02 A2995 RMK AO2 SLP142 T02170017
KCUB 072153Z AUTO 32008KT 10SM SCT075 23/04 A2994 RMK AO2 SLP137 T02280039
KCUB 072053Z AUTO 28011G17KT 10SM CLR 23/04 A2993 RMK AO2 SLP135 T02280039 55001
KCUB 071953Z AUTO 32009KT 10SM SCT075 BKN090 22/04 A2993 RMK AO2 SLP132 T02220039
KCUB 071853Z AUTO 29007G17KT 260V320 10SM BKN070 OVC080 22/04 A2994 RMK AO2 SLP136 T02170039
KCUB 071753Z AUTO 31011G21KT 10SM FEW065 22/04 A2994 RMK AO2 SLP135 T02220044 10228 20144 50000
KCUB 071653Z AUTO 27010G20KT 10SM SCT065 22/04 A2995 RMK AO2 SLP139 T02170044
KCUB 071553Z AUTO 33007G15KT 300V110 10SM FEW065 22/05 A2995 RMK AO2 SLP140 T02170050
KCUB 071453Z AUTO VRB05KT 10SM CLR 20/07 A2994 RMK AO2 SLP136 T02000067 51010
KCUB 071353Z AUTO 33008G17KT 10SM CLR 18/06 A2993 RMK AO2 SLP135 T01830061
KCUB 071253Z AUTO 29007KT 10SM CLR 17/08 A2992 RMK AO2 SLP132 T01670078
KCUB 071153Z AUTO 27008KT 10SM CLR 14/07 A2991 RMK AO2 SLP125 T01440072 10150 20106 53010
KCUB 071053Z AUTO 26004KT 10SM CLR 12/08 A2989 RMK AO2 SLP119 T01220078